Sider Manzanillo — CQIR5 — position and weather

sailwx.info

Track history (hours):
 
Tides and Currents Weather Stations Pressure Air Temp Water Temp Dewpoint Dewpoint Depression Visibility Wind Speed Wind Dir Waves Ship Positions

Sider Manzanillo

Last reported at 2017-Nov-03 21:02 UTC. Time now 2017-Nov-17 19:38 UTC.
Position N 28°20' W 016°04'.
Warning: this ship's position is 13 days out of date.

Length 108 m; draft 7.1 m.

Type: Cargo ship. MMSI: 255806046.

Date/timePositionNaut miles runAvg speedWind from/ knotsBaromVisibWave heightAir tempDewpointWater temp
2017-Nov-03 21:02N 28°20' W 016°04'0 9.8
2017-Nov-03 21:00N 28°20' W 016°04'5 9.6
2017-Nov-03 20:30N 28°23' W 016°00'5 9.5
2017-Nov-03 20:00N 28°27' W 015°57'510.2
2017-Nov-03 19:30N 28°31' W 015°53'510.0
2017-Nov-03 18:59N 28°35' W 015°49'5 9.9
2017-Nov-03 18:28N 28°38' W 015°45'510.1
2017-Nov-03 18:00N 28°42' W 015°42'510.1
2017-Nov-03 17:30N 28°46' W 015°38'510.1
2017-Nov-03 17:00N 28°51' W 015°36'  
2017-Oct-31 20:13N 39°03' W 010°14'210.1
2017-Oct-31 20:00N 39°05' W 010°13'5 9.8
2017-Oct-31 19:27N 39°10' W 010°10'4 9.7
2017-Oct-31 19:00N 39°13' W 010°07'28 9.8
2017-Oct-31 16:10N 39°35' W 009°45'7 9.6
2017-Oct-31 15:27N 39°41' W 009°40'4 9.6
2017-Oct-31 15:00N 39°45' W 009°37'5 9.6
2017-Oct-31 14:30N 39°49' W 009°33'  
Track history (hours):
 
Tides and Currents Weather Stations Pressure Air Temp Water Temp Dewpoint Dewpoint Depression Visibility Wind Speed Wind Dir Waves Ship Positions

Sider Manzanillo

Last reported at 2017-Nov-03 21:02 UTC. Time now 2017-Nov-17 19:38 UTC.
Position N 28°20' W 016°04'.
Warning: this ship's position is 13 days out of date.

Length 108 m; draft 7.1 m.

Type: Cargo ship. MMSI: 255806046.

Date/timePositionNaut miles runAvg speedWind from/ knotsBaromVisibWave heightAir tempDewpointWater temp
2017-Nov-03 21:02N 28°20' W 016°04'0 9.8
2017-Nov-03 21:00N 28°20' W 016°04'5 9.6
2017-Nov-03 20:30N 28°23' W 016°00'5 9.5
2017-Nov-03 20:00N 28°27' W 015°57'510.2
2017-Nov-03 19:30N 28°31' W 015°53'510.0
2017-Nov-03 18:59N 28°35' W 015°49'5 9.9
2017-Nov-03 18:28N 28°38' W 015°45'510.1
2017-Nov-03 18:00N 28°42' W 015°42'510.1
2017-Nov-03 17:30N 28°46' W 015°38'510.1
2017-Nov-03 17:00N 28°51' W 015°36'  
2017-Oct-31 20:13N 39°03' W 010°14'210.1
2017-Oct-31 20:00N 39°05' W 010°13'5 9.8
2017-Oct-31 19:27N 39°10' W 010°10'4 9.7
2017-Oct-31 19:00N 39°13' W 010°07'28 9.8
2017-Oct-31 16:10N 39°35' W 009°45'7 9.6
2017-Oct-31 15:27N 39°41' W 009°40'4 9.6
2017-Oct-31 15:00N 39°45' W 009°37'5 9.6
2017-Oct-31 14:30N 39°49' W 009°33'  

Dump ship's entire track history